Time;durP1;ratioP1;P1;durP2;ratioP2;P2;SDS_P1;SDS_P2;PMS_P1;PMS_P2;Temp;Humidity;BMP_temperature;BMP_pressure;BME280_temperature;BME280_humidity;BME280_pressure;Samples;Min_cycle;Max_cycle;Signal;HPM_P1;HPM_P2
2022/02/27 00:00:21;;;;;;;40.15;19.82;;;6.70;91.10;;;;;;1918635;75;21243;-51
2022/02/27 00:02:50;;;;;;;47.25;21.00;;;6.70;91.10;;;;;;1918614;75;21026;-50
2022/02/27 00:05:20;;;;;;;38.15;19.45;;;6.70;91.20;;;;;;1918634;75;21106;-51
2022/02/27 00:07:49;;;;;;;48.20;21.68;;;6.70;91.20;;;;;;1918964;75;21058;-50
2022/02/27 00:10:24;;;;;;;37.48;15.18;;;6.60;91.10;;;;;;1918673;75;21150;-50
2022/02/27 00:12:53;;;;;;;46.95;19.15;;;6.60;91.30;;;;;;1916817;75;21126;-52
2022/02/27 00:15:22;;;;;;;49.03;19.15;;;6.60;91.30;;;;;;1918749;75;21174;-49
2022/02/27 00:17:51;;;;;;;52.58;21.02;;;6.50;91.50;;;;;;1918699;74;21081;-50
2022/02/27 00:20:21;;;;;;;51.48;20.30;;;6.50;91.40;;;;;;1918683;75;21135;-50
2022/02/27 00:22:51;;;;;;;45.78;20.30;;;6.50;91.30;;;;;;1918573;75;21090;-51
2022/02/27 00:25:20;;;;;;;54.65;19.92;;;6.50;91.30;;;;;;1918731;75;21541;-51
2022/02/27 00:27:49;;;;;;;35.48;16.00;;;6.50;91.40;;;;;;1918777;74;21160;-52
2022/02/27 00:30:20;;;;;;;45.70;18.80;;;6.50;91.40;;;;;;1917941;75;21204;-51
2022/02/27 00:32:50;;;;;;;41.90;18.20;;;6.50;91.30;;;;;;1918603;75;21026;-52
2022/02/27 00:35:19;;;;;;;29.80;14.80;;;6.40;91.40;;;;;;1918571;75;21086;-50
2022/02/27 00:37:49;;;;;;;43.00;18.52;;;6.40;91.50;;;;;;1918588;75;21221;-50
2022/02/27 00:40:18;;;;;;;39.63;18.15;;;6.40;91.50;;;;;;1918682;74;21006;-50
2022/02/27 00:42:48;;;;;;;52.53;21.73;;;6.40;91.40;;;;;;1918613;75;21066;-51
2022/02/27 00:45:17;;;;;;;33.70;16.35;;;6.40;91.40;;;;;;1918580;75;21108;-52
2022/02/27 00:47:46;;;;;;;53.68;20.62;;;6.40;91.20;;;;;;1918558;75;21208;-52
2022/02/27 00:50:16;;;;;;;48.90;20.72;;;6.40;91.20;;;;;;1918585;74;21200;-52
2022/02/27 00:52:46;;;;;;;44.08;19.40;;;6.40;91.20;;;;;;1918573;75;21033;-52
2022/02/27 00:55:15;;;;;;;36.17;17.65;;;6.40;91.20;;;;;;1918569;75;21194;-51
2022/02/27 00:57:44;;;;;;;51.05;19.73;;;6.40;91.20;;;;;;1918608;75;21143;-50
2022/02/27 01:00:14;;;;;;;42.75;18.67;;;6.40;91.10;;;;;;1918706;75;21160;-53
2022/02/27 01:02:44;;;;;;;37.58;17.42;;;6.40;91.10;;;;;;1918565;75;21190;-50
2022/02/27 01:05:13;;;;;;;39.03;18.00;;;6.40;91.10;;;;;;1918611;75;21114;-50
2022/02/27 01:07:44;;;;;;;44.85;20.02;;;6.40;91.00;;;;;;1918676;74;21054;-51
2022/02/27 01:10:13;;;;;;;46.05;20.45;;;6.40;91.10;;;;;;1918628;74;21207;-51
2022/02/27 01:12:43;;;;;;;33.40;16.25;;;6.40;91.00;;;;;;1918516;75;21063;-51
2022/02/27 01:15:12;;;;;;;40.40;19.52;;;6.40;91.10;;;;;;1918611;75;21034;-51
2022/02/27 01:17:41;;;;;;;50.40;20.25;;;6.40;91.20;;;;;;1918572;74;21002;-52
2022/02/27 01:20:11;;;;;;;50.48;20.62;;;6.30;91.10;;;;;;1918682;75;21086;-51
2022/02/27 01:22:41;;;;;;;54.88;21.50;;;6.30;91.30;;;;;;1918685;75;21087;-51
2022/02/27 01:25:10;;;;;;;44.03;18.30;;;6.30;91.20;;;;;;1918553;75;21169;-52
2022/02/27 01:27:40;;;;;;;49.18;18.48;;;6.30;91.30;;;;;;1918605;74;21141;-52
2022/02/27 01:30:10;;;;;;;46.68;19.37;;;6.30;91.20;;;;;;1918656;74;21078;-52
2022/02/27 01:32:41;;;;;;;45.85;17.73;;;6.30;91.30;;;;;;1918539;74;21026;-51
2022/02/27 01:35:10;;;;;;;40.08;17.20;;;6.30;91.30;;;;;;1918566;75;21094;-52
2022/02/27 01:37:40;;;;;;;51.90;21.30;;;6.30;91.40;;;;;;1918554;75;21104;-49
2022/02/27 01:40:10;;;;;;;52.58;21.70;;;6.20;91.30;;;;;;1918631;74;21126;-51
2022/02/27 01:42:39;;;;;;;33.05;15.50;;;6.30;91.30;;;;;;1918663;75;21158;-51
2022/02/27 01:45:09;;;;;;;51.28;20.57;;;6.20;91.20;;;;;;1918799;75;21034;-51
2022/02/27 01:47:38;;;;;;;32.35;16.67;;;6.20;91.20;;;;;;1918693;75;21007;-50
2022/02/27 01:50:09;;;;;;;44.40;19.80;;;6.20;91.30;;;;;;1918669;75;21154;-51
2022/02/27 01:52:38;;;;;;;45.03;19.40;;;6.20;91.30;;;;;;1918560;75;21054;-49
2022/02/27 01:55:10;;;;;;;32.70;15.58;;;6.20;91.40;;;;;;1918806;74;21120;-51
2022/02/27 01:57:41;;;;;;;39.70;16.75;;;6.20;91.30;;;;;;1918480;74;21178;-51
2022/02/27 02:00:12;;;;;;;36.10;16.67;;;6.20;91.30;;;;;;1918695;74;21094;-51
2022/02/27 02:02:45;;;;;;;53.85;21.02;;;6.10;91.40;;;;;;1918679;74;21138;-51
2022/02/27 02:05:15;;;;;;;45.65;18.30;;;6.10;91.30;;;;;;1918786;75;21078;-51
2022/02/27 02:07:46;;;;;;;43.28;18.48;;;6.10;91.30;;;;;;1918559;74;21212;-51
2022/02/27 02:10:16;;;;;;;46.18;19.40;;;6.10;91.30;;;;;;1918767;75;21073;-51
2022/02/27 02:12:47;;;;;;;46.45;18.77;;;6.10;91.20;;;;;;1918391;75;21513;-51
2022/02/27 02:15:17;;;;;;;52.78;21.27;;;6.10;91.30;;;;;;1918559;74;21166;-51
2022/02/27 02:17:46;;;;;;;37.13;18.40;;;6.10;91.30;;;;;;1918654;75;21026;-51
2022/02/27 02:20:20;;;;;;;51.68;20.77;;;6.10;91.30;;;;;;1918696;75;21536;-50
2022/02/27 02:22:51;;;;;;;41.85;19.45;;;6.10;91.30;;;;;;1916789;75;21164;-51
2022/02/27 02:25:20;;;;;;;43.05;19.40;;;6.10;91.40;;;;;;1918749;75;21563;-52
2022/02/27 02:27:49;;;;;;;52.85;18.42;;;6.10;91.30;;;;;;1918620;74;21025;-51
2022/02/27 02:30:19;;;;;;;41.65;18.15;;;6.10;91.30;;;;;;1918859;75;21104;-48
2022/02/27 02:32:52;;;;;;;32.73;14.10;;;6.10;91.30;;;;;;1918745;75;21181;-52
2022/02/27 02:35:24;;;;;;;36.17;17.40;;;6.10;91.30;;;;;;1918692;75;21597;-51
2022/02/27 02:37:53;;;;;;;42.60;20.08;;;6.10;91.30;;;;;;1918678;75;21094;-50
2022/02/27 02:40:27;;;;;;;38.53;18.65;;;6.10;91.30;;;;;;1918652;75;21090;-51
2022/02/27 02:42:57;;;;;;;47.13;20.37;;;6.10;91.40;;;;;;1918944;75;21038;-51
2022/02/27 02:45:26;;;;;;;44.30;19.40;;;6.10;91.40;;;;;;1918720;75;21157;-50
2022/02/27 02:47:56;;;;;;;34.50;18.25;;;6.10;91.50;;;;;;1918653;74;21049;-50
2022/02/27 02:50:27;;;;;;;51.40;18.85;;;6.10;91.40;;;;;;1918535;74;21070;-51
2022/02/27 02:52:56;;;;;;;34.78;17.02;;;6.10;91.30;;;;;;1918647;74;21085;-50
2022/02/27 02:55:26;;;;;;;39.90;17.73;;;6.10;91.30;;;;;;1918790;75;21147;-50
2022/02/27 02:57:56;;;;;;;49.03;18.95;;;6.00;91.40;;;;;;1918748;75;21034;-53
2022/02/27 03:00:25;;;;;;;44.35;18.42;;;6.00;91.50;;;;;;1918667;75;21184;-51
2022/02/27 03:02:55;;;;;;;47.98;17.55;;;6.00;91.40;;;;;;1918628;74;21090;-51
2022/02/27 03:05:24;;;;;;;43.00;19.30;;;6.00;91.50;;;;;;1918636;75;21154;-48
2022/02/27 03:07:53;;;;;;;44.08;19.65;;;6.00;91.50;;;;;;1918651;75;21094;-52
2022/02/27 03:10:23;;;;;;;42.33;17.75;;;6.00;91.60;;;;;;1918690;75;21022;-52
2022/02/27 03:12:52;;;;;;;49.23;18.92;;;6.00;91.40;;;;;;1918462;75;21042;-51
2022/02/27 03:15:21;;;;;;;35.43;17.87;;;5.90;91.40;;;;;;1912728;75;21204;-51
2022/02/27 03:17:51;;;;;;;42.33;17.07;;;5.90;91.50;;;;;;1909398;75;21083;-50
2022/02/27 03:20:20;;;;;;;39.80;15.98;;;5.90;91.60;;;;;;1909445;75;21116;-51
2022/02/27 03:22:50;;;;;;;46.80;17.70;;;5.90;91.50;;;;;;1909434;75;21228;-50
2022/02/27 03:25:19;;;;;;;41.25;15.53;;;5.90;91.50;;;;;;1909420;74;21134;-52
2022/02/27 03:27:49;;;;;;;45.67;18.35;;;5.90;91.50;;;;;;1909411;75;21132;-48
2022/02/27 03:30:18;;;;;;;35.68;16.23;;;5.90;91.40;;;;;;1909400;74;21034;-51
2022/02/27 03:32:48;;;;;;;37.53;16.02;;;5.80;91.50;;;;;;1909341;75;21034;-52
2022/02/27 03:35:18;;;;;;;27.70;13.62;;;5.80;91.40;;;;;;1909542;75;21034;-51
2022/02/27 03:37:51;;;;;;;35.68;15.60;;;5.80;91.50;;;;;;1909485;75;21095;-52
2022/02/27 03:40:21;;;;;;;29.10;14.10;;;5.80;91.40;;;;;;1909527;75;21541;-48
2022/02/27 03:42:51;;;;;;;41.75;16.80;;;5.80;91.50;;;;;;1909395;75;21046;-48
2022/02/27 03:45:20;;;;;;;36.65;17.02;;;5.80;91.50;;;;;;1909534;75;21073;-50
2022/02/27 03:47:50;;;;;;;37.17;15.83;;;5.80;91.40;;;;;;1909416;75;21233;-51
2022/02/27 03:50:20;;;;;;;34.43;13.88;;;5.80;91.40;;;;;;1909563;75;21155;-50
2022/02/27 03:52:49;;;;;;;35.85;16.70;;;5.80;91.40;;;;;;1909315;75;21091;-51
2022/02/27 03:55:19;;;;;;;52.10;19.65;;;5.80;91.40;;;;;;1909473;75;21124;-51
2022/02/27 03:57:49;;;;;;;45.25;19.42;;;5.80;91.40;;;;;;1909489;75;21195;-50
2022/02/27 04:00:19;;;;;;;37.73;14.33;;;5.80;91.50;;;;;;1909402;75;21094;-50
2022/02/27 04:02:48;;;;;;;41.02;17.92;;;5.80;91.50;;;;;;1909428;75;21034;-51
2022/02/27 04:05:19;;;;;;;41.45;17.35;;;5.90;91.40;;;;;;1909379;75;21090;-52
2022/02/27 04:07:48;;;;;;;40.58;17.12;;;5.90;91.40;;;;;;1909382;75;21030;-49
2022/02/27 04:10:18;;;;;;;42.75;16.10;;;5.90;91.40;;;;;;1909529;75;21119;-50
2022/02/27 04:12:47;;;;;;;48.60;19.27;;;5.90;91.30;;;;;;1909299;75;21232;-49
2022/02/27 04:15:17;;;;;;;44.20;17.65;;;5.90;91.30;;;;;;1912525;75;21222;-51
2022/02/27 04:17:46;;;;;;;47.03;19.45;;;5.90;91.30;;;;;;1918566;75;21207;-48
2022/02/27 04:20:15;;;;;;;45.52;19.67;;;5.90;91.50;;;;;;1918549;75;21104;-49
2022/02/27 04:22:45;;;;;;;50.23;19.45;;;5.90;91.30;;;;;;1918660;75;21231;-50
2022/02/27 04:25:14;;;;;;;41.05;18.52;;;5.90;91.40;;;;;;1918703;75;21006;-49
2022/02/27 04:27:43;;;;;;;31.62;14.00;;;5.90;91.40;;;;;;1918615;75;21030;-51
2022/02/27 04:30:13;;;;;;;35.52;14.60;;;5.90;91.40;;;;;;1918573;75;21122;-51
2022/02/27 04:32:43;;;;;;;34.75;14.75;;;5.90;91.30;;;;;;1918634;75;21135;-51
2022/02/27 04:35:14;;;;;;;49.10;19.10;;;5.80;91.30;;;;;;1918579;74;21311;-51
2022/02/27 04:37:43;;;;;;;44.15;18.12;;;5.80;91.20;;;;;;1918820;75;21090;-50
2022/02/27 04:40:13;;;;;;;34.20;14.50;;;5.80;91.30;;;;;;1918661;74;21158;-52
2022/02/27 04:42:42;;;;;;;33.80;14.70;;;5.80;91.30;;;;;;1918566;74;21146;-52
2022/02/27 04:45:11;;;;;;;37.67;17.23;;;5.70;91.30;;;;;;1918691;75;21038;-49
2022/02/27 04:47:40;;;;;;;36.83;16.77;;;5.80;91.30;;;;;;1918602;74;21186;-51
2022/02/27 04:50:10;;;;;;;45.43;18.62;;;5.80;91.20;;;;;;1918687;74;21033;-52
2022/02/27 04:52:39;;;;;;;36.73;17.67;;;5.80;91.20;;;;;;1918572;75;21094;-51
2022/02/27 04:55:09;;;;;;;35.08;17.57;;;5.80;91.20;;;;;;1918596;75;21050;-52
2022/02/27 04:57:38;;;;;;;34.95;18.70;;;5.80;91.20;;;;;;1918694;75;21034;-52
2022/02/27 05:00:09;;;;;;;24.60;10.60;;;5.80;91.20;;;;;;1918547;74;21111;-53
2022/02/27 05:02:39;;;;;;;29.25;14.15;;;5.90;91.10;;;;;;1918681;75;21026;-52
2022/02/27 05:05:09;;;;;;;34.60;13.85;;;5.80;91.00;;;;;;1918569;75;21038;-51
2022/02/27 05:07:38;;;;;;;32.35;15.60;;;5.90;90.90;;;;;;1918562;75;21069;-51
2022/02/27 05:10:09;;;;;;;37.25;19.20;;;5.90;90.80;;;;;;1918596;75;21033;-52
2022/02/27 05:12:39;;;;;;;29.82;15.85;;;5.90;90.90;;;;;;1918402;74;21069;-53
2022/02/27 05:15:12;;;;;;;30.17;15.15;;;5.90;90.80;;;;;;1918085;75;21038;-50
2022/02/27 05:17:41;;;;;;;33.73;15.58;;;5.90;90.70;;;;;;1902108;75;20999;-50
2022/02/27 05:20:11;;;;;;;25.50;13.25;;;5.90;90.70;;;;;;1902172;75;21007;-50
2022/02/27 05:22:49;;;;;;;23.92;10.40;;;5.90;90.70;;;;;;1902030;75;21007;-50
2022/02/27 05:25:20;;;;;;;27.45;12.78;;;5.90;90.60;;;;;;1902253;75;21108;-51
2022/02/27 05:27:52;;;;;;;35.33;15.72;;;5.90;90.60;;;;;;1902086;75;21023;-50
2022/02/27 05:30:22;;;;;;;27.10;13.80;;;5.90;90.70;;;;;;1902057;75;21022;-50
2022/02/27 05:32:52;;;;;;;24.60;10.98;;;5.90;90.70;;;;;;1902000;75;21116;-50
2022/02/27 05:35:21;;;;;;;30.20;15.18;;;5.90;90.50;;;;;;1902082;75;21063;-50
2022/02/27 05:37:50;;;;;;;30.20;15.23;;;5.90;90.40;;;;;;1902105;75;21007;-52
2022/02/27 05:40:20;;;;;;;30.95;15.10;;;5.90;90.60;;;;;;1902233;75;21046;-53
2022/02/27 05:42:49;;;;;;;24.15;12.10;;;5.90;90.60;;;;;;1902092;75;21031;-51
2022/02/27 05:45:19;;;;;;;28.52;12.28;;;6.00;90.50;;;;;;1902148;75;21031;-54
2022/02/27 05:47:48;;;;;;;26.85;14.03;;;6.00;90.50;;;;;;1902035;75;21035;-49
2022/02/27 05:50:18;;;;;;;28.98;14.30;;;6.00;90.50;;;;;;1902294;75;21019;-52
2022/02/27 05:52:47;;;;;;;31.48;16.62;;;6.00;90.50;;;;;;1902065;75;21148;-53
2022/02/27 05:55:16;;;;;;;22.42;12.58;;;6.10;90.50;;;;;;1902107;75;21160;-51
2022/02/27 05:57:46;;;;;;;28.30;13.48;;;6.10;90.30;;;;;;1902067;75;21104;-52
2022/02/27 06:00:15;;;;;;;32.53;15.08;;;6.10;90.20;;;;;;1902072;75;21090;-50
2022/02/27 06:02:45;;;;;;;24.82;14.30;;;6.10;90.30;;;;;;1902153;75;21142;-52
2022/02/27 06:05:14;;;;;;;28.00;13.40;;;6.10;90.30;;;;;;1902193;75;21030;-52
2022/02/27 06:07:44;;;;;;;30.23;13.80;;;6.10;90.00;;;;;;1902248;75;21124;-52
2022/02/27 06:10:13;;;;;;;25.12;12.37;;;6.10;90.00;;;;;;1902065;75;21026;-51
2022/02/27 06:12:52;;;;;;;32.13;13.83;;;6.10;90.00;;;;;;1901971;75;21116;-51
2022/02/27 06:15:21;;;;;;;27.25;14.50;;;6.10;89.60;;;;;;1902091;75;21104;-49
2022/02/27 06:17:51;;;;;;;24.82;12.65;;;6.20;90.00;;;;;;1908386;75;21062;-52
2022/02/27 06:20:20;;;;;;;28.27;15.58;;;6.10;89.30;;;;;;1909253;75;21103;-52
2022/02/27 06:22:51;;;;;;;27.55;15.38;;;6.20;90.00;;;;;;1909399;75;21006;-50
2022/02/27 06:25:21;;;;;;;29.57;14.33;;;6.20;89.90;;;;;;1909490;75;21019;-52
2022/02/27 06:27:50;;;;;;;26.45;13.72;;;6.20;89.70;;;;;;1909537;75;21100;-52
2022/02/27 06:30:22;;;;;;;24.70;13.08;;;6.20;89.50;;;;;;1909437;75;21007;-51
2022/02/27 06:32:52;;;;;;;29.07;13.68;;;6.20;89.70;;;;;;1909500;75;21031;-51
2022/02/27 06:35:23;;;;;;;34.27;14.38;;;6.20;89.50;;;;;;1909553;75;20999;-50
2022/02/27 06:37:53;;;;;;;37.40;15.03;;;6.20;89.30;;;;;;1909520;75;21026;-51
2022/02/27 06:40:23;;;;;;;26.37;11.40;;;6.20;88.80;;;;;;1909480;75;21141;-48
2022/02/27 06:42:53;;;;;;;23.38;11.55;;;6.20;88.80;;;;;;1909441;74;21042;-48
2022/02/27 06:45:22;;;;;;;28.90;13.88;;;6.20;88.60;;;;;;1909440;75;21034;-53
2022/02/27 06:47:51;;;;;;;28.55;12.43;;;6.20;88.40;;;;;;1909518;75;21097;-49
2022/02/27 06:50:22;;;;;;;29.75;11.78;;;6.20;88.40;;;;;;1909510;75;21116;-53
2022/02/27 06:52:51;;;;;;;25.30;13.15;;;6.20;88.10;;;;;;1909437;75;21108;-53
2022/02/27 06:55:21;;;;;;;30.75;14.50;;;6.20;88.50;;;;;;1909513;75;21050;-49
2022/02/27 06:57:51;;;;;;;32.40;14.78;;;6.20;88.30;;;;;;1909432;75;21007;-52
2022/02/27 07:00:21;;;;;;;22.82;11.65;;;6.30;89.00;;;;;;1909421;75;21096;-52
2022/02/27 07:02:50;;;;;;;24.25;10.08;;;6.30;88.80;;;;;;1909505;75;21030;-52
2022/02/27 07:05:19;;;;;;;28.87;13.70;;;6.30;87.80;;;;;;1909392;75;21031;-50
2022/02/27 07:07:49;;;;;;;25.88;12.58;;;6.30;88.40;;;;;;1909393;75;21030;-51
2022/02/27 07:10:18;;;;;;;20.80;11.18;;;6.30;88.30;;;;;;1909577;74;21108;-50
2022/02/27 07:12:48;;;;;;;21.20;10.38;;;6.30;87.50;;;;;;1909495;75;21077;-50
2022/02/27 07:15:18;;;;;;;27.07;13.38;;;6.30;87.80;;;;;;1909460;75;21159;-49
2022/02/27 07:17:47;;;;;;;19.48;12.60;;;6.30;87.40;;;;;;1905265;75;21153;-49
2022/02/27 07:20:17;;;;;;;24.50;12.37;;;6.30;87.70;;;;;;1902256;75;21030;-52
2022/02/27 07:22:47;;;;;;;33.20;14.05;;;6.30;87.00;;;;;;1902295;75;21007;-50
2022/02/27 07:25:16;;;;;;;23.47;12.28;;;6.30;87.80;;;;;;1902125;75;21031;-52
2022/02/27 07:27:45;;;;;;;23.70;12.85;;;6.40;87.40;;;;;;1902152;75;21105;-52
2022/02/27 07:30:15;;;;;;;26.37;13.98;;;6.40;87.40;;;;;;1902156;75;21113;-53
2022/02/27 07:32:44;;;;;;;20.25;10.88;;;6.40;87.50;;;;;;1902169;75;21007;-50
2022/02/27 07:35:14;;;;;;;24.00;12.95;;;6.40;87.70;;;;;;1902075;75;21104;-50
2022/02/27 07:37:43;;;;;;;14.75;8.08;;;6.40;87.20;;;;;;1902115;75;21078;-52
2022/02/27 07:40:13;;;;;;;22.22;12.20;;;6.40;87.00;;;;;;1902133;75;21108;-49
2022/02/27 07:42:43;;;;;;;19.75;10.88;;;6.40;86.80;;;;;;1902392;75;21239;-50
2022/02/27 07:45:12;;;;;;;16.27;10.53;;;6.40;86.10;;;;;;1902238;75;21007;-50
2022/02/27 07:47:41;;;;;;;21.42;11.57;;;6.40;86.40;;;;;;1902280;75;21109;-52
2022/02/27 07:50:11;;;;;;;22.35;12.07;;;6.40;86.90;;;;;;1902138;75;21108;-52
2022/02/27 07:52:40;;;;;;;20.77;11.20;;;6.50;87.40;;;;;;1902252;75;21128;-52
2022/02/27 07:55:10;;;;;;;22.55;11.97;;;6.60;86.40;;;;;;1902094;75;21031;-52
2022/02/27 07:57:39;;;;;;;15.15;8.53;;;6.60;87.00;;;;;;1902150;75;21104;-53
2022/02/27 08:00:09;;;;;;;20.55;11.55;;;6.60;86.10;;;;;;1902165;75;21031;-52
2022/02/27 08:02:42;;;;;;;20.85;11.22;;;6.60;86.60;;;;;;1902301;75;21011;-51
2022/02/27 08:05:11;;;;;;;20.68;11.90;;;6.60;86.20;;;;;;1902243;75;21118;-52
2022/02/27 08:07:40;;;;;;;20.65;11.20;;;6.60;86.30;;;;;;1902131;75;21006;-53
2022/02/27 08:10:11;;;;;;;20.70;11.45;;;6.70;86.20;;;;;;1902209;75;21019;-52
2022/02/27 08:12:46;;;;;;;18.77;11.78;;;6.70;85.60;;;;;;1902157;75;21113;-51
2022/02/27 08:15:16;;;;;;;22.42;11.40;;;6.60;85.10;;;;;;1902320;75;21133;-50
2022/02/27 08:17:46;;;;;;;22.62;12.03;;;6.60;85.60;;;;;;1907627;75;21151;-51
2022/02/27 08:20:15;;;;;;;20.37;11.25;;;6.60;85.90;;;;;;1918576;75;21029;-51
2022/02/27 08:22:44;;;;;;;25.55;14.45;;;6.60;85.70;;;;;;1918601;74;21046;-52
2022/02/27 08:25:15;;;;;;;23.42;13.53;;;6.60;86.30;;;;;;1918568;75;21006;-50
2022/02/27 08:27:45;;;;;;;25.62;13.90;;;6.60;86.30;;;;;;1918585;74;20998;-51
2022/02/27 08:30:14;;;;;;;21.42;12.53;;;6.60;86.30;;;;;;1918603;75;21006;-50
2022/02/27 08:32:49;;;;;;;24.05;12.65;;;6.60;86.00;;;;;;1918639;75;21010;-49
2022/02/27 08:35:14;;;;;;;22.22;13.70;;;6.60;85.70;;;;;;1917723;75;21030;-52
2022/02/27 08:37:44;;;;;;;25.37;12.65;;;6.70;86.40;;;;;;1918548;75;21028;-50
2022/02/27 08:40:14;;;;;;;26.00;13.45;;;6.70;86.50;;;;;;1918558;75;21030;-49
2022/02/27 08:42:43;;;;;;;25.17;14.18;;;6.70;85.70;;;;;;1918851;74;21026;-52
2022/02/27 08:45:13;;;;;;;19.80;8.90;;;6.80;86.10;;;;;;1918645;75;21136;-51
2022/02/27 08:47:42;;;;;;;20.77;12.30;;;6.80;85.80;;;;;;1918634;75;21034;-51
2022/02/27 08:50:12;;;;;;;20.82;12.28;;;6.80;85.60;;;;;;1918552;74;21179;-50
2022/02/27 08:52:41;;;;;;;20.00;12.23;;;6.90;86.40;;;;;;1918561;74;21112;-50
2022/02/27 08:55:12;;;;;;;20.30;11.80;;;6.90;85.20;;;;;;1918522;75;21476;-50
2022/02/27 08:57:41;;;;;;;19.07;10.98;;;6.90;83.80;;;;;;1918565;74;21111;-51
2022/02/27 09:00:12;;;;;;;31.82;11.03;;;6.90;85.10;;;;;;1918541;75;21029;-51
2022/02/27 09:02:42;;;;;;;27.42;14.33;;;6.90;85.50;;;;;;1918585;74;21037;-52
2022/02/27 09:05:11;;;;;;;24.05;13.78;;;7.00;86.10;;;;;;1918495;74;21127;-53
2022/02/27 09:07:41;;;;;;;29.10;14.40;;;7.10;85.90;;;;;;1918607;75;21004;-50
2022/02/27 09:10:16;;;;;;;23.90;13.05;;;7.10;86.20;;;;;;1918525;75;21034;-51
2022/02/27 09:12:43;;;;;;;24.30;13.50;;;7.20;86.40;;;;;;1916782;75;21006;-52
2022/02/27 09:15:14;;;;;;;28.12;12.82;;;7.30;86.40;;;;;;1918597;75;21034;-51
2022/02/27 09:17:44;;;;;;;19.90;11.38;;;7.40;85.40;;;;;;1917796;75;21048;-52
2022/02/27 09:20:14;;;;;;;21.40;11.97;;;7.40;85.20;;;;;;1902204;75;21538;-53
2022/02/27 09:22:43;;;;;;;20.68;11.78;;;7.30;84.00;;;;;;1902094;75;21192;-52
2022/02/27 09:25:12;;;;;;;20.20;11.05;;;7.30;85.00;;;;;;1902204;75;21050;-50
2022/02/27 09:27:42;;;;;;;18.65;11.12;;;7.30;85.20;;;;;;1902188;75;21021;-51
2022/02/27 09:30:15;;;;;;;22.10;11.73;;;7.30;84.90;;;;;;1902100;75;21163;-49
2022/02/27 09:32:45;;;;;;;18.05;11.08;;;7.30;84.80;;;;;;1902135;75;20991;-58
2022/02/27 09:35:14;;;;;;;18.87;11.55;;;7.30;85.00;;;;;;1902079;75;21191;-52
2022/02/27 09:37:43;;;;;;;17.07;10.40;;;7.30;84.60;;;;;;1902189;75;21030;-51
2022/02/27 09:40:13;;;;;;;16.17;10.75;;;7.30;84.00;;;;;;1902078;75;21007;-51
2022/02/27 09:42:42;;;;;;;19.73;11.65;;;7.40;84.30;;;;;;1902099;75;21007;-50
2022/02/27 09:45:12;;;;;;;19.62;11.55;;;7.40;83.50;;;;;;1902072;75;21007;-52
2022/02/27 09:47:42;;;;;;;20.32;10.85;;;7.50;83.60;;;;;;1902097;75;21027;-53
2022/02/27 09:50:11;;;;;;;22.58;12.33;;;7.50;84.40;;;;;;1902087;75;21030;-50
2022/02/27 09:52:41;;;;;;;18.40;11.68;;;7.60;83.20;;;;;;1902044;75;21089;-50
2022/02/27 09:55:14;;;;;;;16.23;9.55;;;7.60;84.20;;;;;;1902123;75;21026;-52
2022/02/27 09:57:46;;;;;;;16.77;9.75;;;7.60;82.90;;;;;;1902212;75;21007;-52
2022/02/27 10:00:17;;;;;;;16.40;10.13;;;7.60;83.90;;;;;;1902110;75;21043;-52
2022/02/27 10:03:10;;;;;;;20.15;10.85;;;7.60;83.30;;;;;;1902264;75;21007;-52
2022/02/27 10:05:42;;;;;;;18.77;11.45;;;7.60;82.40;;;;;;1902159;75;21113;-50
2022/02/27 10:08:12;;;;;;;20.43;10.00;;;7.60;82.70;;;;;;1902254;75;21034;-51
2022/02/27 10:10:58;;;;;;;21.65;12.60;;;7.60;82.90;;;;;;1902253;75;21006;-53
2022/02/27 10:13:35;;;;;;;17.73;10.50;;;7.60;83.10;;;;;;1900766;75;21050;-50
2022/02/27 10:16:06;;;;;;;21.25;11.68;;;7.60;82.70;;;;;;1900424;75;21038;-51
2022/02/27 10:18:45;;;;;;;18.35;10.40;;;7.60;83.50;;;;;;1904378;75;21501;-53
2022/02/27 10:21:26;;;;;;;16.77;11.10;;;7.60;82.50;;;;;;1918830;75;21045;-52
2022/02/27 10:24:04;;;;;;;18.35;11.28;;;7.70;82.40;;;;;;1918652;75;21026;-51
2022/02/27 10:26:36;;;;;;;21.57;11.57;;;7.70;82.80;;;;;;1918673;75;21033;-50
2022/02/27 10:29:11;;;;;;;18.07;11.75;;;7.70;81.30;;;;;;1918587;74;21022;-52
2022/02/27 10:31:42;;;;;;;18.92;10.95;;;7.80;82.00;;;;;;1918820;75;21433;-52
2022/02/27 10:34:31;;;;;;;16.12;8.58;;;7.90;81.40;;;;;;1918569;75;21030;-52
2022/02/27 10:37:06;;;;;;;30.05;12.73;;;7.90;80.20;;;;;;1918578;74;21026;-49
2022/02/27 10:39:42;;;;;;;25.23;13.05;;;7.90;80.70;;;;;;1918718;74;21501;-52
2022/02/27 10:42:17;;;;;;;24.25;12.98;;;7.80;81.40;;;;;;1918719;75;21089;-51
2022/02/27 10:44:54;;;;;;;24.07;12.45;;;7.80;81.90;;;;;;1918919;75;21030;-50
2022/02/27 10:47:30;;;;;;;24.30;13.38;;;7.80;81.10;;;;;;1918787;75;21014;-52
2022/02/27 10:50:01;;;;;;;26.07;13.13;;;7.70;81.90;;;;;;1918575;75;21074;-52
2022/02/27 10:52:32;;;;;;;25.65;14.95;;;7.70;81.20;;;;;;1918676;75;21151;-51
2022/02/27 10:55:04;;;;;;;24.07;13.75;;;7.70;81.40;;;;;;1918675;75;21096;-52
2022/02/27 10:57:38;;;;;;;28.50;14.60;;;7.60;81.60;;;;;;1918646;75;21120;-52
2022/02/27 11:00:29;;;;;;;26.60;13.72;;;7.60;81.90;;;;;;1918795;74;21034;-50
2022/02/27 11:03:09;;;;;;;23.15;14.60;;;7.60;82.10;;;;;;1918777;75;21041;-51
2022/02/27 11:05:41;;;;;;;23.12;11.68;;;7.50;81.10;;;;;;1918627;75;21085;-51
2022/02/27 11:08:12;;;;;;;24.15;13.88;;;7.50;81.70;;;;;;1918749;75;21034;-52
2022/02/27 11:10:43;;;;;;;27.20;13.88;;;7.50;81.60;;;;;;1918609;74;21022;-51
2022/02/27 11:13:13;;;;;;;21.85;12.20;;;7.50;81.90;;;;;;1918704;75;21021;-52
2022/02/27 11:15:43;;;;;;;24.32;12.03;;;7.50;81.70;;;;;;1918560;74;21179;-50
2022/02/27 11:18:12;;;;;;;26.70;13.90;;;7.50;81.80;;;;;;1918583;75;21026;-51
2022/02/27 11:20:42;;;;;;;23.32;12.37;;;7.50;81.80;;;;;;1918513;75;21587;-51
2022/02/27 11:23:11;;;;;;;21.80;12.30;;;7.50;81.00;;;;;;1918644;74;21022;-52
2022/02/27 11:25:40;;;;;;;21.23;12.78;;;7.50;81.60;;;;;;1918753;75;21030;-50
2022/02/27 11:28:12;;;;;;;23.45;13.08;;;7.50;81.70;;;;;;1918767;75;21002;-48
2022/02/27 11:30:43;;;;;;;20.15;12.43;;;7.50;81.80;;;;;;1918703;75;21108;-50
2022/02/27 11:33:15;;;;;;;19.52;11.75;;;7.50;81.90;;;;;;1918595;75;21465;-49
2022/02/27 11:35:49;;;;;;;26.10;14.28;;;7.60;81.40;;;;;;1918534;74;21002;-50
2022/02/27 11:38:34;;;;;;;30.65;10.82;;;7.60;82.00;;;;;;1918867;75;21116;-51
2022/02/27 11:41:11;;;;;;;20.45;12.30;;;7.60;81.20;;;;;;1918651;75;21018;-52
2022/02/27 11:43:54;;;;;;;23.30;12.73;;;7.70;81.00;;;;;;1918594;74;21022;-52
2022/02/27 11:46:41;;;;;;;20.05;11.65;;;7.60;81.10;;;;;;1918544;75;21006;-50
2022/02/27 11:49:11;;;;;;;24.98;12.80;;;7.60;79.90;;;;;;1918796;75;21108;-51
2022/02/27 11:51:55;;;;;;;21.45;11.75;;;7.50;80.90;;;;;;1918701;75;21070;-52
2022/02/27 11:54:27;;;;;;;23.32;12.05;;;7.50;80.90;;;;;;1917890;74;21139;-52
2022/02/27 11:57:05;;;;;;;18.12;10.32;;;7.60;81.60;;;;;;1918640;75;21038;-50
2022/02/27 11:59:51;;;;;;;25.90;13.35;;;7.60;81.00;;;;;;1918658;74;21112;-52
2022/02/27 12:02:32;;;;;;;22.67;13.00;;;7.60;81.40;;;;;;1918766;74;21476;-52
2022/02/27 12:05:04;;;;;;;20.05;11.12;;;7.60;81.10;;;;;;1918608;74;21022;-52
2022/02/27 12:07:52;;;;;;;29.12;14.47;;;7.60;80.80;;;;;;1918726;75;21481;-51
2022/02/27 12:10:34;;;;;;;25.08;13.62;;;7.50;80.70;;;;;;1918670;75;21026;-52
2022/02/27 12:13:03;;;;;;;30.50;13.53;;;7.50;81.80;;;;;;1882234;75;21002;-49
2022/02/27 12:15:37;;;;;;;29.18;14.05;;;7.50;81.20;;;;;;1918643;75;21006;-51
2022/02/27 12:18:09;;;;;;;23.15;13.95;;;7.50;81.30;;;;;;1918903;75;21111;-50
2022/02/27 12:20:45;;;;;;;25.92;14.68;;;7.50;81.40;;;;;;1916854;75;21549;-50
2022/02/27 12:23:35;;;;;;;19.50;10.85;;;7.50;81.10;;;;;;1918801;75;21058;-50
2022/02/27 12:26:07;;;;;;;20.15;11.75;;;7.50;80.50;;;;;;1863043;75;21120;-50
2022/02/27 12:28:54;;;;;;;22.70;12.58;;;7.40;80.40;;;;;;1918801;75;21037;-50
2022/02/27 12:31:27;;;;;;;22.85;14.15;;;7.30;80.70;;;;;;1918695;75;21042;-51
2022/02/27 12:33:58;;;;;;;25.65;14.10;;;7.40;81.00;;;;;;1914328;75;21103;-50
2022/02/27 12:36:36;;;;;;;28.85;14.80;;;7.40;81.70;;;;;;1918621;75;21536;-52
2022/02/27 12:39:04;;;;;;;30.25;14.98;;;7.40;81.20;;;;;;1917354;75;21042;-52
2022/02/27 12:41:38;;;;;;;25.30;15.28;;;7.40;80.90;;;;;;1918581;75;21555;-50
2022/02/27 12:44:10;;;;;;;24.45;14.10;;;7.40;81.00;;;;;;1918835;75;21042;-51
2022/02/27 12:46:40;;;;;;;23.40;14.15;;;7.30;81.30;;;;;;1918652;75;21069;-51
2022/02/27 12:51:59;;;;;;;25.90;13.78;;;7.30;81.60;;;;;;1918710;75;21053;-52
2022/02/27 12:54:37;;;;;;;23.57;13.45;;;7.30;81.80;;;;;;1918519;74;21035;-50
2022/02/27 12:57:08;;;;;;;30.27;14.87;;;7.30;81.60;;;;;;1918642;74;21128;-52
2022/02/27 12:59:40;;;;;;;22.22;12.10;;;7.30;81.40;;;;;;1918523;75;21034;-52